Time;durP1;ratioP1;P1;durP2;ratioP2;P2;SDS_P1;SDS_P2;PMS_P1;PMS_P2;Temp;Humidity;BMP_temperature;BMP_pressure;BME280_temperature;BME280_humidity;BME280_pressure;Samples;Min_cycle;Max_cycle;Signal;HPM_P1;HPM_P2
2020/12/14 00:02:11;;;;;;;46.37;20.27;;;;;;;0.95;100.00;100800.22;5000575;28;20046;-69
2020/12/14 00:04:39;;;;;;;42.20;19.70;;;;;;;0.96;100.00;100788.97;4988201;28;20061;-69
2020/12/14 00:07:05;;;;;;;45.90;21.47;;;;;;;0.98;100.00;100779.47;4988915;28;20065;-69
2020/12/14 00:09:32;;;;;;;45.17;20.93;;;;;;;1.00;100.00;100797.69;4987669;28;20035;-69
2020/12/14 00:11:58;;;;;;;55.30;23.67;;;;;;;0.98;100.00;100789.00;5004362;28;20038;-69
2020/12/14 00:14:24;;;;;;;48.37;22.40;;;;;;;0.98;100.00;100796.81;5003987;28;20038;-69
2020/12/14 00:16:51;;;;;;;50.13;20.97;;;;;;;1.00;100.00;100808.97;4990843;28;20042;-69
2020/12/14 00:19:17;;;;;;;44.43;20.33;;;;;;;1.01;100.00;100815.06;4988601;28;20046;-69
2020/12/14 00:21:44;;;;;;;44.67;20.50;;;;;;;1.03;100.00;100814.28;5005402;28;20049;-69
2020/12/14 00:24:10;;;;;;;45.97;21.97;;;;;;;1.03;100.00;100801.25;4990511;28;20573;-69
2020/12/14 00:26:36;;;;;;;46.37;21.33;;;;;;;1.05;100.00;100807.38;4981168;28;20043;-69
2020/12/14 00:29:02;;;;;;;47.37;21.20;;;;;;;1.07;100.00;100808.25;5003931;28;20499;-69
2020/12/14 00:31:28;;;;;;;44.73;20.63;;;;;;;1.08;100.00;100809.16;4990401;28;20256;-69
2020/12/14 00:33:54;;;;;;;38.90;18.23;;;;;;;1.08;100.00;100807.41;4990212;28;20113;-69
2020/12/14 00:36:21;;;;;;;47.20;21.50;;;;;;;1.10;100.00;100815.28;4990657;28;20034;-69
2020/12/14 00:38:47;;;;;;;47.90;21.80;;;;;;;1.13;100.00;100825.75;4988278;28;20038;-69
2020/12/14 00:41:18;;;;;;;42.53;20.70;;;;;;;1.15;100.00;100826.63;4989938;28;20093;-69
2020/12/14 00:43:45;;;;;;;48.10;21.13;;;;;;;1.16;100.00;100827.50;4990716;28;20416;-69
2020/12/14 00:46:15;;;;;;;42.90;19.93;;;;;;;1.17;100.00;100830.13;5004095;28;20456;-69
2020/12/14 00:48:41;;;;;;;54.53;23.97;;;;;;;1.20;100.00;100818.94;4988347;28;20093;-69
2020/12/14 00:51:07;;;;;;;51.63;22.07;;;;;;;1.19;100.00;100819.78;4988554;28;20034;-69
2020/12/14 00:53:34;;;;;;;44.60;20.33;;;;;;;1.20;100.00;100821.53;4989731;28;20038;-69
2020/12/14 00:56:02;;;;;;;47.37;21.63;;;;;;;1.22;100.00;100830.25;4988315;28;20038;-69
2020/12/14 00:58:28;;;;;;;60.47;22.03;;;;;;;1.22;100.00;100819.84;4987763;28;20423;-69
2020/12/14 01:00:54;;;;;;;51.90;22.23;;;;;;;1.24;100.00;100815.53;4988704;28;20034;-69
2020/12/14 01:03:21;;;;;;;56.70;23.33;;;;;;;1.25;100.00;100819.88;5003501;28;20038;-69
2020/12/14 01:05:47;;;;;;;46.87;20.77;;;;;;;1.26;100.00;100819.03;5004679;28;20069;-69
2020/12/14 01:08:13;;;;;;;51.50;22.23;;;;;;;1.26;100.00;100821.63;4987691;28;20038;-69
2020/12/14 01:10:40;;;;;;;55.30;23.70;;;;;;;1.26;100.00;100822.56;4989827;28;20093;-69
2020/12/14 01:13:06;;;;;;;43.97;19.97;;;;;;;1.27;100.00;100826.03;4989640;28;20049;-69
2020/12/14 01:15:32;;;;;;;60.73;24.60;;;;;;;1.31;100.00;100831.31;4987261;28;20042;-69
2020/12/14 01:17:58;;;;;;;43.50;20.97;;;;;;;1.30;100.00;100824.34;4989915;28;20042;-69
2020/12/14 01:20:24;;;;;;;49.43;23.17;;;;;;;1.32;100.00;100825.25;4988434;28;20035;-69
2020/12/14 01:22:50;;;;;;;55.27;24.60;;;;;;;1.35;100.00;100827.06;4989003;28;20077;-69
2020/12/14 01:25:17;;;;;;;52.13;23.40;;;;;;;1.34;100.00;100828.75;5002206;28;20058;-70
2020/12/14 01:27:43;;;;;;;53.37;23.63;;;;;;;1.35;100.00;100812.31;4986646;28;20583;-69
2020/12/14 01:30:09;;;;;;;59.33;24.37;;;;;;;1.36;100.00;100807.97;4990779;28;20038;-69
2020/12/14 01:32:35;;;;;;;56.73;23.60;;;;;;;1.34;100.00;100828.75;4990418;28;20445;-69
2020/12/14 01:35:02;;;;;;;65.10;24.90;;;;;;;1.38;100.00;100824.50;4994536;28;20553;-69
2020/12/14 01:37:28;;;;;;;58.23;25.13;;;;;;;1.40;100.00;100833.22;4991523;28;20064;-69
2020/12/14 01:39:54;;;;;;;56.07;24.17;;;;;;;1.39;100.00;100831.47;4991628;28;20077;-69
2020/12/14 01:42:22;;;;;;;62.10;26.57;;;;;;;1.39;100.00;100831.47;4987212;28;20038;-69
2020/12/14 01:44:50;;;;;;;58.67;22.33;;;;;;;1.40;100.00;100846.22;4988420;28;20042;-69
2020/12/14 01:47:22;;;;;;;62.90;26.07;;;;;;;1.41;100.00;100843.66;4988900;28;20030;-69
2020/12/14 01:49:49;;;;;;;47.00;22.83;;;;;;;1.45;100.00;100848.94;5003141;28;20146;-70
2020/12/14 01:52:16;;;;;;;64.00;24.87;;;;;;;1.42;100.00;100842.78;4988493;28;20092;-69
2020/12/14 01:54:42;;;;;;;55.47;23.03;;;;;;;1.44;100.00;100839.38;5003415;28;20042;-69
2020/12/14 01:57:08;;;;;;;52.43;22.27;;;;;;;1.44;100.00;100824.63;5003139;28;20508;-69
2020/12/14 01:59:34;;;;;;;53.97;22.63;;;;;;;1.47;100.00;100840.28;4987497;28;20062;-69
2020/12/14 02:02:00;;;;;;;44.00;19.73;;;;;;;1.47;100.00;100829.88;4988182;28;20122;-69
2020/12/14 02:04:27;;;;;;;60.73;23.03;;;;;;;1.48;100.00;100825.56;4988855;28;20041;-69
2020/12/14 02:06:53;;;;;;;63.27;29.17;;;;;;;1.50;100.00;100826.44;4988592;28;20069;-69
2020/12/14 02:09:19;;;;;;;62.50;24.10;;;;;;;1.50;100.00;100821.25;5002382;28;20415;-69
2020/12/14 02:11:48;;;;;;;69.87;27.50;;;;;;;1.51;100.00;100829.06;5003010;28;20430;-69
2020/12/14 02:14:14;;;;;;;64.57;25.27;;;;;;;1.52;100.00;100825.66;4986827;28;20656;-69
2020/12/14 02:16:40;;;;;;;58.90;23.63;;;;;;;1.53;100.00;100822.19;4988848;28;20038;-69
2020/12/14 02:19:06;;;;;;;63.63;26.90;;;;;;;1.54;100.00;100815.25;4988151;28;20104;-69
2020/12/14 02:21:32;;;;;;;66.40;29.10;;;;;;;1.54;100.00;100810.94;4986253;28;20062;-69
2020/12/14 02:23:58;;;;;;;69.03;27.73;;;;;;;1.55;100.00;100802.25;4988530;28;20034;-69
2020/12/14 02:26:24;;;;;;;65.63;28.67;;;;;;;1.57;100.00;100803.16;4987319;28;20042;-69
2020/12/14 02:28:50;;;;;;;68.10;26.70;;;;;;;1.57;100.00;100803.16;4987873;28;20074;-69
2020/12/14 02:31:17;;;;;;;67.37;27.47;;;;;;;1.57;100.00;100794.47;4988132;28;20567;-69
2020/12/14 02:33:43;;;;;;;72.37;27.70;;;;;;;1.57;100.00;100790.13;4987387;28;20054;-69
2020/12/14 02:36:09;;;;;;;79.60;28.97;;;;;;;1.59;100.00;100791.03;4986261;28;20502;-69
2020/12/14 02:38:35;;;;;;;65.77;28.10;;;;;;;1.61;100.00;100791.97;5014649;23;20045;-74
2020/12/14 02:41:02;;;;;;;76.13;26.77;;;;;;;1.60;100.00;100787.63;5037528;28;20037;-74
2020/12/14 02:43:28;;;;;;;83.17;31.03;;;;;;;1.60;100.00;100776.31;5009841;28;20044;-70
2020/12/14 02:45:54;;;;;;;66.30;27.67;;;;;;;1.59;100.00;100772.81;5026753;28;20037;-69
2020/12/14 02:48:21;;;;;;;70.67;30.47;;;;;;;1.59;100.00;100770.22;5009820;28;20052;-70
2020/12/14 02:50:47;;;;;;;79.60;31.17;;;;;;;1.58;100.00;100778.00;5010423;28;20049;-70
2020/12/14 02:53:13;;;;;;;72.77;28.20;;;;;;;1.58;100.00;100778.00;5027938;28;20483;-72
2020/12/14 02:55:39;;;;;;;80.27;30.87;;;;;;;1.60;100.00;100781.53;5010242;28;20087;-73
2020/12/14 02:58:05;;;;;;;58.20;25.03;;;;;;;1.60;100.00;100798.03;5010333;28;20107;-72
2020/12/14 03:00:31;;;;;;;67.13;28.13;;;;;;;1.60;100.00;100786.75;5009320;28;20475;-72
2020/12/14 03:02:57;;;;;;;81.17;32.70;;;;;;;1.60;100.00;100791.94;5027329;28;20041;-70
2020/12/14 03:05:24;;;;;;;68.10;25.97;;;;;;;1.59;100.00;100791.03;5008737;28;20045;-74
2020/12/14 03:07:50;;;;;;;74.43;29.30;;;;;;;1.62;100.00;100804.13;5028222;28;20049;-70
2020/12/14 03:10:16;;;;;;;74.27;30.77;;;;;;;1.63;100.00;100794.59;5006742;28;20037;-71
2020/12/14 03:12:42;;;;;;;62.47;26.20;;;;;;;1.63;100.00;100805.88;5019800;28;20686;-74
2020/12/14 03:15:08;;;;;;;69.63;27.97;;;;;;;1.63;100.00;100802.41;5027475;28;20041;-73
2020/12/14 03:17:34;;;;;;;55.43;24.13;;;;;;;1.63;100.00;100805.00;5009558;28;20120;-73
2020/12/14 03:20:00;;;;;;;64.37;26.40;;;;;;;1.64;100.00;100798.94;5009361;28;20099;-73
2020/12/14 03:22:26;;;;;;;66.87;28.73;;;;;;;1.66;100.00;100797.25;5009260;28;20033;-75
2020/12/14 03:24:53;;;;;;;64.90;25.27;;;;;;;1.65;100.00;100801.56;5018250;28;20041;-69
2020/12/14 03:27:19;;;;;;;59.20;22.50;;;;;;;1.65;100.00;100795.50;5026223;28;20399;-69
2020/12/14 03:29:45;;;;;;;67.27;28.13;;;;;;;1.65;100.00;100783.34;5008629;28;20041;-70
2020/12/14 03:32:11;;;;;;;74.80;30.87;;;;;;;1.66;100.00;100782.50;5026758;28;20525;-70
2020/12/14 03:34:37;;;;;;;73.90;27.47;;;;;;;1.66;100.00;100782.50;5025463;28;20422;-69
2020/12/14 03:37:03;;;;;;;87.47;31.23;;;;;;;1.69;100.00;100772.16;5009227;28;20172;-69
2020/12/14 03:39:29;;;;;;;68.90;28.20;;;;;;;1.68;100.00;100778.22;5008447;28;20033;-69
2020/12/14 03:41:55;;;;;;;73.73;29.17;;;;;;;1.67;100.00;100767.75;5030526;28;20040;-69
2020/12/14 03:44:22;;;;;;;77.97;30.30;;;;;;;1.68;100.00;100769.50;5012441;28;20123;-69
2020/12/14 03:46:50;;;;;;;64.50;25.43;;;;;;;1.70;100.00;100775.63;5028776;28;20041;-69
2020/12/14 03:49:16;;;;;;;63.83;25.70;;;;;;;1.70;100.00;100770.41;5029233;28;20049;-72
2020/12/14 03:51:42;;;;;;;70.00;27.30;;;;;;;1.71;100.00;100763.47;5030373;28;20049;-69
2020/12/14 03:54:09;;;;;;;56.10;24.93;;;;;;;1.75;100.00;100773.06;5039538;28;20529;-72
2020/12/14 03:56:35;;;;;;;54.97;25.03;;;;;;;1.75;100.00;100767.88;5038769;28;20072;-74
2020/12/14 03:59:01;;;;;;;57.53;24.50;;;;;;;1.74;100.00;100769.59;5012920;28;20560;-73
2020/12/14 04:01:29;;;;;;;56.17;23.67;;;;;;;1.75;100.00;100778.28;5029639;28;20514;-71
2020/12/14 04:03:55;;;;;;;64.67;25.93;;;;;;;1.76;100.00;100774.81;5012524;28;20041;-73
2020/12/14 04:06:23;;;;;;;66.30;25.07;;;;;;;1.75;100.00;100776.56;5029490;28;20087;-74
2020/12/14 04:08:50;;;;;;;64.40;28.57;;;;;;;1.80;100.00;100777.53;5010699;28;20526;-71
2020/12/14 04:11:17;;;;;;;66.50;26.50;;;;;;;1.80;100.00;100784.47;5010538;28;20033;-74
2020/12/14 04:13:44;;;;;;;56.27;24.27;;;;;;;1.81;100.00;100773.19;5012987;28;20404;-73
2020/12/14 04:16:11;;;;;;;62.07;27.03;;;;;;;1.79;100.00;100765.34;5012794;28;20558;-71
2020/12/14 04:18:38;;;;;;;53.67;25.97;;;;;;;1.81;100.00;100762.78;4996681;28;20111;-71
2020/12/14 04:21:05;;;;;;;71.17;26.70;;;;;;;1.83;100.00;100767.16;5012576;28;20495;-70
2020/12/14 04:23:31;;;;;;;69.17;28.53;;;;;;;1.85;100.00;100762.88;5012863;28;20103;-70
2020/12/14 04:25:57;;;;;;;80.00;31.63;;;;;;;1.89;100.00;100754.22;5010875;28;20673;-70
2020/12/14 04:28:23;;;;;;;69.10;29.50;;;;;;;1.90;100.00;100765.53;5028613;28;20048;-75
2020/12/14 04:30:50;;;;;;;61.37;26.20;;;;;;;1.89;100.00;100764.66;4996312;28;20042;-70
2020/12/14 04:33:19;;;;;;;66.23;28.67;;;;;;;1.89;100.00;100775.06;5006104;28;20041;-74
2020/12/14 04:35:45;;;;;;;79.87;30.70;;;;;;;1.92;100.00;100774.25;5029673;28;20045;-75
2020/12/14 04:38:11;;;;;;;74.03;31.00;;;;;;;1.92;100.00;100772.50;5012356;28;20144;-74
2020/12/14 04:40:37;;;;;;;74.40;29.13;;;;;;;1.97;100.00;100775.19;5029287;28;20033;-73
2020/12/14 04:43:05;;;;;;;72.03;28.93;;;;;;;1.96;100.00;100773.44;5028077;28;20044;-76
2020/12/14 04:45:31;;;;;;;76.30;29.70;;;;;;;2.01;100.00;100773.50;5029262;28;20083;-70
2020/12/14 04:47:59;;;;;;;87.33;30.30;;;;;;;1.99;100.00;100776.09;5011894;28;20042;-76
2020/12/14 04:50:26;;;;;;;67.20;28.20;;;;;;;2.00;100.00;100780.44;5011765;28;20095;-71
2020/12/14 04:52:52;;;;;;;68.73;27.30;;;;;;;2.08;100.00;100778.84;5029149;28;20124;-70
2020/12/14 04:55:23;;;;;;;64.27;27.20;;;;;;;2.05;100.00;100775.31;5008034;28;20522;-74
2020/12/14 04:57:50;;;;;;;70.83;26.40;;;;;;;2.04;100.00;100774.44;5027389;28;20049;-75
2020/12/14 05:00:17;;;;;;;64.33;26.73;;;;;;;2.06;100.00;100771.88;5009043;28;20072;-71
2020/12/14 05:02:43;;;;;;;79.73;32.63;;;;;;;2.08;100.00;100775.38;5016382;28;20041;-71
2020/12/14 05:05:11;;;;;;;72.47;29.13;;;;;;;2.09;100.00;100784.94;5025225;28;20055;-71
2020/12/14 05:07:42;;;;;;;65.83;26.93;;;;;;;2.11;100.00;100785.84;5012632;28;20034;-73
2020/12/14 05:10:09;;;;;;;88.80;30.80;;;;;;;2.13;100.00;100773.72;5008681;28;20522;-75
2020/12/14 05:12:43;;;;;;;72.33;30.67;;;;;;;2.15;100.00;100777.22;5027305;28;20040;-70
2020/12/14 05:15:21;;;;;;;62.10;24.85;;;;;;;2.14;100.00;100768.53;5010959;28;20045;-73
2020/12/14 05:17:48;;;;;;;70.20;28.73;;;;;;;2.15;100.00;100775.50;5027992;28;20076;-73
2020/12/14 05:20:16;;;;;;;79.70;29.90;;;;;;;2.16;100.00;100766.81;5008711;28;20445;-74
2020/12/14 05:22:58;;;;;;;69.57;30.43;;;;;;;2.17;100.00;100771.16;5007440;28;20114;-70
2020/12/14 05:25:25;;;;;;;86.43;33.07;;;;;;;2.18;100.00;100772.03;5010609;28;20465;-75
2020/12/14 05:28:01;;;;;;;82.77;30.77;;;;;;;2.21;100.00;100775.59;5008366;28;20076;-74
2020/12/14 05:30:48;;;;;;;92.60;30.63;;;;;;;2.23;100.00;100773.88;4994138;28;20036;-71
2020/12/14 05:33:19;;;;;;;66.43;27.23;;;;;;;2.22;100.00;100777.34;5027702;28;20099;-71
2020/12/14 05:35:46;;;;;;;68.63;27.20;;;;;;;2.23;100.00;100771.25;5017180;28;20042;-76
2020/12/14 05:38:22;;;;;;;66.10;24.90;;;;;;;2.26;100.00;100773.91;5027771;28;20042;-71
2020/12/14 05:40:50;;;;;;;69.70;29.00;;;;;;;2.31;100.00;100783.53;5005325;28;20041;-71
2020/12/14 05:43:19;;;;;;;62.57;25.70;;;;;;;2.32;100.00;100777.47;5010359;28;20473;-72
2020/12/14 05:45:46;;;;;;;74.63;27.40;;;;;;;2.32;100.00;100773.13;5027797;28;20037;-74
2020/12/14 05:48:27;;;;;;;72.13;26.27;;;;;;;2.36;100.00;100774.94;5025361;28;20072;-73
2020/12/14 05:51:06;;;;;;;64.13;26.27;;;;;;;2.39;100.00;100776.72;5021310;28;20415;-75
2020/12/14 05:53:53;;;;;;;63.10;25.27;;;;;;;2.46;100.00;100778.56;5026288;28;20076;-70
2020/12/14 05:56:19;;;;;;;69.47;25.80;;;;;;;2.42;100.00;100782.84;5010251;28;20453;-76
2020/12/14 05:58:48;;;;;;;69.77;26.60;;;;;;;2.45;100.00;100787.25;5026627;28;20065;-74
2020/12/14 06:01:16;;;;;;;64.63;26.73;;;;;;;2.50;100.00;100790.78;5012836;28;20757;-71
2020/12/14 06:03:44;;;;;;;71.53;28.87;;;;;;;2.51;100.00;100784.69;5027079;28;20112;-71
2020/12/14 06:06:10;;;;;;;67.27;25.07;;;;;;;2.52;100.00;100789.06;5000345;28;20038;-72
2020/12/14 06:08:45;;;;;;;64.47;26.53;;;;;;;2.52;100.00;100774.31;5023473;28;20445;-71
2020/12/14 06:11:12;;;;;;;55.33;23.20;;;;;;;2.51;100.00;100777.75;5020128;28;20674;-70
2020/12/14 06:13:52;;;;;;;54.83;24.17;;;;;;;2.51;100.00;100777.75;5024334;28;20091;-71
2020/12/14 06:16:23;;;;;;;57.63;24.97;;;;;;;2.53;100.00;100778.66;4998921;28;20045;-71
2020/12/14 06:18:50;;;;;;;66.90;27.03;;;;;;;2.57;100.00;100776.97;5025893;28;20045;-72
2020/12/14 06:21:39;;;;;;;66.70;26.37;;;;;;;2.58;100.00;100775.22;5025610;28;20038;-73
2020/12/14 06:24:06;;;;;;;72.30;26.47;;;;;;;2.62;100.00;100779.66;5027302;28;20510;-77
2020/12/14 06:26:34;;;;;;;64.57;23.60;;;;;;;2.63;100.00;100769.22;5024650;28;20037;-71
2020/12/14 06:29:00;;;;;;;54.73;23.20;;;;;;;2.63;100.00;100774.44;5027953;28;20041;-72
2020/12/14 06:31:31;;;;;;;65.97;25.20;;;;;;;2.62;100.00;100775.31;5004432;28;20088;-71
2020/12/14 06:33:57;;;;;;;59.90;23.47;;;;;;;2.65;100.00;100775.34;5006459;28;20095;-73
2020/12/14 06:36:36;;;;;;;55.03;26.07;;;;;;;2.65;100.00;100779.69;5008092;28;20061;-73
2020/12/14 06:39:02;;;;;;;61.35;24.42;;;;;;;2.66;100.00;100782.31;5027289;28;20091;-73
2020/12/14 06:41:30;;;;;;;70.77;24.03;;;;;;;2.72;100.00;100785.00;5025380;28;20536;-72
2020/12/14 06:44:07;;;;;;;55.73;23.13;;;;;;;2.70;100.00;100775.41;5025759;28;20091;-73
2020/12/14 06:46:33;;;;;;;60.67;24.57;;;;;;;2.71;100.00;100771.94;5008337;28;20438;-71
2020/12/14 06:49:01;;;;;;;66.00;23.97;;;;;;;2.70;100.00;100773.69;5010540;28;20037;-73
2020/12/14 06:51:52;;;;;;;56.37;22.93;;;;;;;2.72;100.00;100778.91;5025494;28;20041;-75
2020/12/14 06:54:44;;;;;;;63.73;24.97;;;;;;;2.70;100.00;100768.47;5011029;28;20080;-73
2020/12/14 06:57:15;;;;;;;64.37;25.83;;;;;;;2.72;100.00;100771.97;5024791;28;20061;-73
2020/12/14 06:59:50;;;;;;;55.57;21.77;;;;;;;2.70;100.00;100770.19;5024758;28;20042;-73
2020/12/14 07:02:17;;;;;;;65.25;23.90;;;;;;;2.70;100.00;100764.97;5018664;28;20042;-72
2020/12/14 07:04:43;;;;;;;57.73;22.90;;;;;;;2.73;100.00;100770.22;5003394;28;20038;-71
2020/12/14 07:07:09;;;;;;;53.77;22.93;;;;;;;2.72;100.00;100769.34;5018293;28;20506;-70
2020/12/14 07:09:38;;;;;;;51.23;22.23;;;;;;;2.72;100.00;100766.75;5027297;28;20034;-71
2020/12/14 07:12:10;;;;;;;50.87;21.10;;;;;;;2.73;100.00;100765.88;5018492;28;20034;-71
2020/12/14 07:14:49;;;;;;;54.13;23.47;;;;;;;2.76;100.00;100767.66;5029086;28;20045;-70
2020/12/14 07:17:22;;;;;;;48.33;21.73;;;;;;;2.77;100.00;100782.44;5019798;28;20064;-74
2020/12/14 07:19:50;;;;;;;60.90;23.90;;;;;;;2.77;100.00;100790.25;5019761;28;20091;-76
2020/12/14 07:22:18;;;;;;;52.13;22.50;;;;;;;2.77;100.00;100780.69;5019686;28;20120;-76
2020/12/14 07:24:49;;;;;;;55.27;24.13;;;;;;;2.81;100.00;100782.50;5019859;28;20839;-72
2020/12/14 07:27:15;;;;;;;65.07;25.67;;;;;;;2.81;100.00;100785.13;5006020;28;20129;-72
2020/12/14 07:29:41;;;;;;;60.50;23.53;;;;;;;2.81;100.00;100774.69;5021598;28;20041;-71
2020/12/14 07:32:07;;;;;;;48.83;20.67;;;;;;;2.85;100.00;100759.06;5023916;28;20087;-71
2020/12/14 07:34:34;;;;;;;65.33;28.47;;;;;;;2.90;100.00;100766.09;5008581;28;20030;-70
2020/12/14 07:37:00;;;;;;;57.90;24.50;;;;;;;2.88;100.00;100767.81;5007052;28;20239;-70
2020/12/14 07:39:26;;;;;;;63.97;25.30;;;;;;;2.90;100.00;100763.50;5026982;28;20048;-71
2020/12/14 07:41:53;;;;;;;53.77;23.43;;;;;;;2.94;100.00;100767.00;5026033;28;20072;-70
2020/12/14 07:44:19;;;;;;;64.70;26.13;;;;;;;2.94;100.00;100767.00;5006972;28;20561;-71
2020/12/14 07:46:45;;;;;;;59.27;23.50;;;;;;;2.96;100.00;100766.19;5007607;28;20045;-73
2020/12/14 07:49:13;;;;;;;53.27;22.73;;;;;;;2.97;100.00;100762.72;5026884;28;20463;-70
2020/12/14 07:51:41;;;;;;;70.30;24.53;;;;;;;2.97;100.00;100762.72;5026209;28;20030;-74
2020/12/14 07:54:12;;;;;;;49.87;22.20;;;;;;;3.01;100.00;100764.47;5017328;28;20041;-73
2020/12/14 07:57:00;;;;;;;65.37;26.07;;;;;;;3.02;100.00;100757.53;5010603;28;20602;-74
2020/12/14 07:59:28;;;;;;;47.37;21.50;;;;;;;3.04;100.00;100758.44;5004829;28;20765;-71
2020/12/14 08:01:55;;;;;;;53.63;25.30;;;;;;;3.06;100.00;100761.94;5008943;28;20033;-72
2020/12/14 08:04:26;;;;;;;63.03;23.47;;;;;;;3.05;100.00;100760.19;5008719;28;20655;-71
2020/12/14 08:06:52;;;;;;;58.00;21.83;;;;;;;3.04;100.00;100754.09;5026604;28;20030;-71
2020/12/14 08:09:20;;;;;;;53.07;24.30;;;;;;;3.09;100.00;100768.06;5025853;28;20041;-70
2020/12/14 08:11:47;;;;;;;52.90;23.17;;;;;;;3.10;100.00;100751.53;5009078;28;20548;-71
2020/12/14 08:14:16;;;;;;;49.37;22.77;;;;;;;3.16;100.00;100747.25;5011217;28;20037;-75
2020/12/14 08:16:44;;;;;;;49.17;22.80;;;;;;;3.16;100.00;100748.13;5015391;28;20053;-76
2020/12/14 08:19:21;;;;;;;46.47;24.03;;;;;;;3.17;100.00;100754.22;5006825;28;20104;-74
2020/12/14 08:22:00;;;;;;;53.90;23.53;;;;;;;3.20;100.00;100755.16;5025858;28;20080;-72
2020/12/14 08:24:27;;;;;;;48.53;20.80;;;;;;;3.22;100.00;100747.34;5010185;28;20044;-73
2020/12/14 08:27:04;;;;;;;56.83;24.60;;;;;;;3.22;100.00;100753.44;5013157;28;20049;-73
2020/12/14 08:29:31;;;;;;;52.83;22.70;;;;;;;3.29;100.00;100757.84;5012298;28;20044;-71
2020/12/14 08:32:00;;;;;;;48.73;23.70;;;;;;;3.33;100.00;100751.78;5012298;28;20037;-74
2020/12/14 08:34:36;;;;;;;46.20;19.70;;;;;;;3.37;100.00;100763.16;5029559;28;20041;-72
2020/12/14 08:37:04;;;;;;;60.50;24.43;;;;;;;3.34;100.00;100756.16;4996147;28;20116;-74
2020/12/14 08:39:30;;;;;;;54.63;22.77;;;;;;;3.43;100.00;100757.09;5032647;28;20279;-76
2020/12/14 08:42:03;;;;;;;49.37;22.57;;;;;;;3.49;100.00;100757.19;5013015;28;20079;-73
2020/12/14 08:44:34;;;;;;;53.10;22.13;;;;;;;3.48;100.00;100756.31;5030592;28;20045;-73
2020/12/14 08:47:00;;;;;;;43.53;18.67;;;;;;;3.53;100.00;100758.94;4974777;28;20039;-69
2020/12/14 08:49:30;;;;;;;47.03;22.63;;;;;;;3.55;100.00;100758.13;4980709;28;20545;-69
2020/12/14 08:51:56;;;;;;;44.80;20.97;;;;;;;3.57;100.00;100756.38;4967573;28;20097;-69
2020/12/14 08:54:26;;;;;;;43.37;19.30;;;;;;;3.61;100.00;100755.53;4969718;28;20043;-69
2020/12/14 08:56:52;;;;;;;45.47;19.70;;;;;;;3.63;100.00;100766.91;4969488;28;20562;-69
2020/12/14 08:59:20;;;;;;;43.93;20.10;;;;;;;3.65;100.00;100761.69;4969800;28;20125;-69
2020/12/14 09:01:56;;;;;;;46.90;22.43;;;;;;;3.66;100.00;100766.91;4974260;28;20046;-69
2020/12/14 09:04:27;;;;;;;40.17;20.30;;;;;;;3.67;100.00;100778.25;4967654;28;20101;-69
2020/12/14 09:06:54;;;;;;;38.70;19.43;;;;;;;3.70;100.00;100767.84;4968278;28;20043;-69
2020/12/14 09:09:29;;;;;;;46.43;21.13;;;;;;;3.70;100.00;100767.84;4969712;28;20153;-69
2020/12/14 09:11:55;;;;;;;37.03;18.73;;;;;;;3.75;100.00;100768.75;4967368;28;20039;-70
2020/12/14 09:14:31;;;;;;;36.53;18.37;;;;;;;3.77;100.00;100771.38;4973275;28;20093;-69
2020/12/14 09:17:01;;;;;;;39.93;20.43;;;;;;;3.79;100.00;100770.53;4989572;28;20097;-69
2020/12/14 09:19:29;;;;;;;36.80;19.77;;;;;;;3.83;100.00;100755.75;4968397;28;20119;-69
2020/12/14 09:21:56;;;;;;;37.07;18.47;;;;;;;3.86;100.00;100761.84;4965756;28;20043;-69
2020/12/14 09:24:43;;;;;;;38.33;18.43;;;;;;;3.95;100.00;100754.13;4985152;28;20282;-69
2020/12/14 09:27:11;;;;;;;38.97;19.50;;;;;;;4.00;100.00;100743.69;4966090;28;20039;-69
2020/12/14 09:29:38;;;;;;;31.53;16.60;;;;;;;4.05;100.00;100741.13;4969055;28;20428;-69
2020/12/14 09:32:05;;;;;;;32.53;17.20;;;;;;;4.09;100.00;100735.03;4968911;28;20499;-69
2020/12/14 09:34:32;;;;;;;30.63;15.30;;;;;;;4.13;100.00;100735.06;4953140;28;20122;-69
2020/12/14 09:37:00;;;;;;;32.77;15.93;;;;;;;4.22;100.00;100742.09;4968982;28;20066;-69
2020/12/14 09:39:27;;;;;;;30.03;15.93;;;;;;;4.29;100.00;100746.53;4968101;28;20468;-69
2020/12/14 09:41:56;;;;;;;32.60;17.23;;;;;;;4.33;100.00;100740.44;4966398;28;20038;-69
2020/12/14 09:44:27;;;;;;;27.93;16.53;;;;;;;4.42;100.00;100732.63;4967628;28;20054;-69
2020/12/14 09:46:54;;;;;;;28.73;15.50;;;;;;;4.45;100.00;100739.59;4968613;28;20038;-68
2020/12/14 09:49:22;;;;;;;27.70;16.27;;;;;;;4.51;100.00;100732.69;4951319;28;20061;-69
2020/12/14 09:51:49;;;;;;;33.97;17.43;;;;;;;4.52;100.00;100741.41;4970461;28;20443;-68
2020/12/14 09:54:16;;;;;;;26.00;14.00;;;;;;;4.55;100.00;100740.56;4966797;28;20524;-68
2020/12/14 09:56:43;;;;;;;27.47;15.17;;;;;;;4.59;100.00;100734.47;4950155;28;20050;-68
2020/12/14 09:59:09;;;;;;;30.53;17.00;;;;;;;4.64;100.00;100730.13;4966519;28;20070;-68
2020/12/14 10:01:35;;;;;;;32.57;16.63;;;;;;;4.69;100.00;100723.16;4964653;28;20042;-68
2020/12/14 10:04:02;;;;;;;31.20;16.33;;;;;;;4.63;100.00;100726.66;4967410;28;20035;-69
2020/12/14 10:06:28;;;;;;;28.63;15.20;;;;;;;4.68;100.00;100729.28;4965503;28;20046;-69
2020/12/14 10:08:55;;;;;;;29.80;15.93;;;;;;;4.64;100.00;100710.06;4967215;28;20051;-68
2020/12/14 10:11:28;;;;;;;31.80;17.17;;;;;;;4.65;100.00;100709.22;4970055;28;20035;-69
2020/12/14 10:13:55;;;;;;;31.50;17.30;;;;;;;4.66;100.00;100725.78;4967610;28;20527;-68
2020/12/14 10:16:21;;;;;;;32.50;16.43;;;;;;;4.63;100.00;100710.94;4965723;28;20127;-69
2020/12/14 10:18:48;;;;;;;26.93;15.47;;;;;;;4.70;100.00;100715.31;4968291;28;20085;-68
2020/12/14 10:21:15;;;;;;;33.63;17.73;;;;;;;4.71;100.00;100717.09;4967009;28;20034;-69
2020/12/14 10:23:42;;;;;;;32.70;16.70;;;;;;;4.72;100.00;100713.59;4967378;28;20524;-69
2020/12/14 10:26:10;;;;;;;34.67;18.33;;;;;;;4.77;100.00;100711.00;4967014;28;20047;-69
2020/12/14 10:28:37;;;;;;;25.30;15.97;;;;;;;4.82;100.00;100711.91;4955187;28;20039;-68
2020/12/14 10:31:09;;;;;;;31.30;17.80;;;;;;;4.77;100.00;100711.84;4965712;28;20504;-69
2020/12/14 10:33:37;;;;;;;29.83;15.97;;;;;;;4.79;100.00;100712.75;4982006;28;20427;-69
2020/12/14 10:36:11;;;;;;;29.10;15.40;;;;;;;4.88;100.00;100704.06;4963203;28;20143;-68
2020/12/14 10:38:38;;;;;;;29.73;16.73;;;;;;;4.90;100.00;100704.06;4982279;28;20066;-68
2020/12/14 10:41:06;;;;;;;30.57;16.63;;;;;;;4.94;100.00;100711.03;4968574;28;20279;-68
2020/12/14 10:43:32;;;;;;;30.17;16.70;;;;;;;4.96;100.00;100715.44;4971601;28;20149;-69
2020/12/14 10:45:58;;;;;;;24.80;15.07;;;;;;;5.01;100.00;100704.97;4968501;28;20035;-69
2020/12/14 10:48:25;;;;;;;28.10;16.60;;;;;;;5.12;100.00;100710.22;4974515;28;20575;-69
2020/12/14 10:50:51;;;;;;;29.33;16.33;;;;;;;5.19;100.00;100698.91;4968318;28;20067;-69
2020/12/14 10:53:17;;;;;;;26.90;15.90;;;;;;;5.29;100.00;100701.53;4973129;28;20034;-69
2020/12/14 10:55:43;;;;;;;30.37;16.97;;;;;;;5.40;100.00;100696.31;4971566;28;20050;-69
2020/12/14 10:58:09;;;;;;;28.53;15.17;;;;;;;5.43;100.00;100701.56;4963873;28;20442;-69
2020/12/14 11:00:36;;;;;;;25.73;14.93;;;;;;;5.62;100.00;100703.31;4982930;28;20038;-69
2020/12/14 11:03:02;;;;;;;25.10;15.77;;;;;;;5.75;100.00;100691.09;4967513;28;20035;-68
2020/12/14 11:05:29;;;;;;;25.73;14.23;;;;;;;5.84;100.00;100688.47;4962742;28;20047;-68
2020/12/14 11:07:55;;;;;;;22.13;14.00;;;;;;;5.93;100.00;100692.84;4960464;28;20055;-69
2020/12/14 11:10:21;;;;;;;22.87;13.60;;;;;;;5.96;100.00;100687.59;4963094;28;20053;-68
2020/12/14 11:12:48;;;;;;;22.93;14.33;;;;;;;6.00;98.88;100675.38;4981599;28;20039;-68
2020/12/14 11:15:15;;;;;;;24.70;14.23;;;;;;;6.29;98.93;100677.91;4962292;28;20093;-69